Hauptseite
METAR-TAF:

METAR-TAF

Flughäfen :

Flughafen Pointe-Noire

Pointe-Noire, Kongo

Breite: 04-49S, Länge: 011-54E, Höhe: 17 m

Beobachtung

Neuester Wetterbericht von vor 22 Minuten, um 04:00 UTC
Wind 2 kt aus Ost/Südost
Temperatur 22°C
Luftfeuchtigkeit 94%
Luftdruck 1015 hPa
Sichtweite: 6000 m
Leicht bewölkt in der Höhe von 1000 ft
Durchbrochene Bewölkung in der Höhe von 2000 ft

METAR: FCPP 230400Z 11002KT 6000 FEW010 BKN020 22/21 Q1015 NOSIG

Zeit: 05:22 (04:22 UTC)

Prognose

Neuester Wetterbericht von vor 5 Stunden und 22 Minuten, um 23:00 UTC
Gültige Prognose vom 23 um 00 UTC bis 23 um 24 UTC
Wind 4 kt aus Süd
Sichtweite: 8000 m
Aufgelockert bewölkt in der Höhe von 1000 ft
Durchbrochene Bewölkung in der Höhe von 2300 ft
Wahrscheinlichkeit 30%
vom 23 um 04 UTC bis 23 um 07 UTC
Sichtweite: 4000 m
feuchter Dunst

TAF: FCPP 222300Z 2300/2324 18004KT 8000 SCT010 BKN023 PROB30 2304/2307 4000 BR

Wetterbeobachtungen und Prognosen von mehr als 4000 Flughäfen (METAR und TAF Bericht).

Die verfügbaren Stationen werden durch gelbe und rote Markierungen auf der Karte dargestellt.

Führen Sie die Maus auf sie, um den Namen der Station zu sehen.

Darauf klicken, um die Beobachtung von Wetterbeobachtungen und Prognosen zu sehen.

Um die Karte zu ändern : klicken Sie auf den grünen Tasten mit einem schwarzen Kreuz Zum Vergrößern, auf den grünen Button mit einem Gedankenstrich zu verkleinern, oder auf die grünen Pfeile für benachbarte Karten.


METAR-TAF: